createdAt,value
2018-12-27T00:00:23.685Z,99.99
2018-12-27T00:01:23.652Z,99.99
2018-12-27T00:02:23.638Z,99.99
2018-12-27T00:03:23.626Z,99.99
2018-12-27T00:04:23.614Z,99.99
2018-12-27T00:05:23.604Z,99.99
2018-12-27T00:06:23.608Z,99.99
2018-12-27T00:07:23.585Z,99.99
2018-12-27T00:08:23.572Z,99.99
2018-12-27T00:09:23.563Z,99.99
2018-12-27T00:10:23.568Z,99.99
2018-12-27T00:11:23.575Z,99.99
2018-12-27T00:12:23.531Z,99.99
2018-12-27T00:13:23.524Z,99.99
2018-12-27T00:14:23.510Z,99.99
2018-12-27T00:15:23.499Z,99.99
2018-12-27T00:16:23.485Z,99.99
2018-12-27T00:17:23.491Z,99.99
2018-12-27T00:18:23.464Z,99.99
2018-12-27T00:19:23.454Z,99.99
2018-12-27T00:20:23.446Z,99.99
2018-12-27T00:21:23.433Z,99.99
2018-12-27T00:22:23.441Z,99.99
2018-12-27T00:23:23.410Z,99.99
2018-12-27T00:24:23.400Z,99.99
2018-12-27T00:25:23.389Z,99.99
2018-12-27T00:26:23.395Z,99.99
2018-12-27T00:27:23.383Z,99.99
2018-12-27T00:28:23.372Z,99.99
2018-12-27T00:29:23.363Z,99.99
2018-12-27T00:30:23.335Z,99.99
2018-12-27T00:31:23.325Z,99.99
2018-12-27T00:32:23.331Z,99.99
2018-12-27T00:33:23.321Z,99.99
2018-12-27T00:34:23.291Z,99.99
2018-12-27T00:35:23.285Z,99.99
2018-12-27T00:36:23.274Z,99.99
2018-12-27T00:37:23.263Z,99.99
2018-12-27T00:38:23.270Z,99.99
2018-12-27T00:39:23.242Z,99.99
2018-12-27T00:40:23.246Z,99.99
2018-12-27T00:41:23.218Z,99.99
2018-12-27T00:42:23.210Z,99.99
2018-12-27T00:43:23.229Z,99.99
2018-12-27T00:44:23.186Z,99.99
2018-12-27T00:45:23.175Z,99.99
2018-12-27T00:46:23.165Z,99.99
2018-12-27T00:47:23.158Z,99.99
2018-12-27T00:48:23.141Z,99.99
2018-12-27T00:49:23.149Z,99.99
2018-12-27T00:50:23.121Z,99.99
2018-12-27T00:51:23.114Z,99.99
2018-12-27T00:52:23.102Z,99.99
2018-12-27T00:53:23.090Z,99.99
2018-12-27T00:54:23.119Z,99.99
2018-12-27T00:55:23.080Z,99.99
2018-12-27T00:56:23.057Z,99.99
2018-12-27T00:57:23.049Z,99.99
2018-12-27T00:58:23.038Z,99.99
2018-12-27T00:59:23.027Z,99.99
2018-12-27T01:00:23.033Z,99.99
2018-12-27T01:01:23.006Z,99.99
2018-12-27T01:02:22.996Z,99.99
2018-12-27T01:03:22.984Z,99.99
2018-12-27T01:04:22.992Z,99.99
2018-12-27T01:05:22.960Z,99.99
2018-12-27T01:06:22.948Z,99.99
2018-12-27T01:07:22.943Z,99.99
2018-12-27T01:08:22.930Z,99.99
2018-12-27T01:09:22.957Z,99.99
2018-12-27T01:10:22.910Z,99.99
2018-12-27T01:11:22.896Z,99.99
2018-12-27T01:12:22.886Z,99.99
2018-12-27T01:13:22.880Z,99.99
2018-12-27T01:14:22.866Z,99.99
2018-12-27T01:15:22.868Z,99.99
2018-12-27T01:16:22.867Z,99.99
2018-12-27T01:17:22.836Z,99.99
2018-12-27T01:18:22.824Z,99.99
2018-12-27T01:19:22.810Z,99.99
2018-12-27T01:20:22.800Z,99.99
2018-12-27T01:21:22.792Z,99.99
2018-12-27T01:22:22.802Z,99.99
2018-12-27T01:23:22.769Z,99.99
2018-12-27T01:24:22.760Z,99.99
2018-12-27T01:25:22.749Z,99.99
2018-12-27T01:26:22.736Z,99.99
2018-12-27T01:27:22.724Z,99.99
2018-12-27T01:28:22.748Z,99.99
2018-12-27T01:29:22.706Z,99.99
2018-12-27T01:30:22.695Z,99.99
2018-12-27T01:31:22.682Z,99.99
2018-12-27T01:32:22.671Z,99.99
2018-12-27T01:33:22.660Z,99.99
2018-12-27T01:34:22.672Z,99.99
2018-12-27T01:35:22.635Z,99.99
2018-12-27T01:36:22.631Z,99.99
2018-12-27T01:37:22.621Z,99.99
2018-12-27T01:38:22.608Z,99.99
2018-12-27T01:39:22.601Z,99.99
2018-12-27T01:40:22.623Z,99.99
2018-12-27T01:41:22.580Z,99.99
2018-12-27T01:42:22.568Z,99.99
2018-12-27T01:43:22.555Z,99.99
2018-12-27T01:44:22.544Z,99.99
2018-12-27T01:45:22.536Z,99.99
2018-12-27T01:46:22.554Z,99.99
2018-12-27T01:47:22.513Z,99.99
2018-12-27T01:48:22.504Z,99.99
2018-12-27T01:49:22.494Z,99.99
2018-12-27T01:50:22.482Z,99.99
2018-12-27T01:51:22.469Z,99.99
2018-12-27T01:52:22.570Z,99.99
2018-12-27T01:53:22.447Z,99.99
2018-12-27T01:54:22.439Z,99.99
2018-12-27T01:55:22.427Z,99.99
2018-12-27T01:56:22.418Z,99.99
2018-12-27T01:57:22.406Z,99.99
2018-12-27T01:58:22.410Z,99.99
2018-12-27T01:59:22.397Z,99.99
2018-12-27T02:00:22.376Z,99.99
2018-12-27T02:01:22.363Z,99.99
2018-12-27T02:02:22.354Z,99.99
2018-12-27T02:03:26.443Z,99.99
2018-12-27T02:04:22.349Z,99.99
2018-12-27T02:05:22.319Z,99.99
2018-12-27T02:06:22.313Z,99.99
2018-12-27T02:07:22.301Z,99.99
2018-12-27T02:08:22.290Z,99.99
2018-12-27T02:09:22.305Z,99.99
2018-12-27T02:10:22.267Z,99.99
2018-12-27T02:11:22.258Z,99.99
2018-12-27T02:12:22.247Z,99.99
2018-12-27T02:13:22.234Z,99.99
2018-12-27T02:14:22.225Z,99.99
2018-12-27T02:15:22.232Z,99.99
2018-12-27T02:16:22.203Z,99.99
2018-12-27T02:17:22.193Z,99.99
2018-12-27T02:18:22.181Z,99.99
2018-12-27T02:19:22.172Z,99.99
2018-12-27T02:20:22.177Z,99.99
2018-12-27T02:21:22.151Z,99.99
2018-12-27T02:22:22.139Z,99.99
2018-12-27T02:23:22.127Z,99.99
2018-12-27T02:24:22.118Z,99.95
2018-12-27T02:25:22.125Z,99.99
2018-12-27T02:26:22.114Z,99.99
2018-12-27T02:27:22.087Z,99.99
2018-12-27T02:28:22.074Z,99.99
2018-12-27T02:29:22.066Z,99.99
2018-12-27T02:30:22.055Z,99.99
2018-12-27T02:31:22.058Z,99.99
2018-12-27T02:32:22.034Z,99.99
2018-12-27T02:33:22.021Z,99.99
2018-12-27T02:34:22.012Z,99.99
2018-12-27T02:35:22.002Z,99.99
2018-12-27T02:36:22.018Z,99.99
2018-12-27T02:37:21.981Z,99.99
2018-12-27T02:38:21.967Z,99.99
2018-12-27T02:39:21.962Z,99.99
2018-12-27T02:40:21.945Z,99.99
2018-12-27T02:41:21.940Z,99.99
2018-12-27T02:42:21.941Z,99.99
2018-12-27T02:43:21.916Z,99.99
2018-12-27T02:44:21.901Z,99.99
2018-12-27T02:45:21.897Z,99.99
2018-12-27T02:46:21.883Z,99.99
2018-12-27T02:47:21.902Z,99.99
2018-12-27T02:48:21.863Z,99.99
2018-12-27T02:49:21.853Z,99.99
2018-12-27T02:50:21.838Z,99.99
2018-12-27T02:51:21.828Z,99.99
2018-12-27T02:52:21.821Z,99.99
2018-12-27T02:53:21.827Z,99.99
2018-12-27T02:54:21.796Z,99.99
2018-12-27T02:55:21.788Z,99.99
2018-12-27T02:56:21.778Z,99.99
2018-12-27T02:57:21.801Z,99.99
2018-12-27T02:58:21.754Z,99.99
2018-12-27T02:59:21.744Z,99.99
2018-12-27T03:00:21.737Z,99.99
2018-12-27T03:01:21.722Z,99.99
2018-12-27T03:02:21.714Z,99.99
2018-12-27T03:03:21.729Z,99.99
2018-12-27T03:04:21.690Z,99.99
2018-12-27T03:05:21.686Z,99.99
2018-12-27T03:06:21.671Z,99.99
2018-12-27T03:07:21.662Z,99.99
2018-12-27T03:08:21.652Z,99.95
2018-12-27T03:09:21.651Z,99.99
2018-12-27T03:10:21.627Z,99.99
2018-12-27T03:11:21.616Z,99.99
2018-12-27T03:12:21.607Z,99.99
2018-12-27T03:13:21.597Z,99.99
2018-12-27T03:14:21.609Z,99.99
2018-12-27T03:15:21.576Z,99.99
2018-12-27T03:16:21.566Z,99.99
2018-12-27T03:17:21.553Z,99.99
2018-12-27T03:18:21.548Z,99.99
2018-12-27T03:19:21.535Z,99.99
2018-12-27T03:20:21.535Z,99.99
2018-12-27T03:21:21.514Z,99.99
2018-12-27T03:22:21.499Z,99.99
2018-12-27T03:23:21.488Z,99.99
2018-12-27T03:24:21.480Z,99.99
2018-12-27T03:25:21.510Z,99.99
2018-12-27T03:26:21.454Z,99.99
2018-12-27T03:27:21.446Z,99.99
2018-12-27T03:28:21.439Z,99.99
2018-12-27T03:29:21.426Z,99.99
2018-12-27T03:30:21.415Z,99.99
2018-12-27T03:31:21.440Z,99.99
2018-12-27T03:32:21.400Z,99.99
2018-12-27T03:33:21.383Z,99.99
2018-12-27T03:34:21.371Z,99.99
2018-12-27T03:35:21.360Z,99.99
2018-12-27T03:36:21.355Z,99.99
2018-12-27T03:37:21.349Z,99.99
2018-12-27T03:38:21.331Z,99.99
2018-12-27T03:39:21.323Z,99.99
2018-12-27T03:40:21.317Z,99.99
2018-12-27T03:41:21.321Z,99.99
2018-12-27T03:42:21.288Z,99.99
2018-12-27T03:43:21.275Z,99.99
2018-12-27T03:44:21.264Z,99.99
2018-12-27T03:45:21.254Z,99.99
2018-12-27T03:46:21.260Z,99.99
2018-12-27T03:47:21.232Z,99.99
2018-12-27T03:48:21.223Z,99.99
2018-12-27T03:49:21.211Z,99.99
2018-12-27T03:50:21.203Z,99.99
2018-12-27T03:51:21.205Z,99.99
2018-12-27T03:52:21.179Z,99.99
2018-12-27T03:53:21.169Z,99.99
2018-12-27T03:54:21.159Z,99.99
2018-12-27T03:55:21.164Z,99.99
2018-12-27T03:56:21.140Z,99.99
2018-12-27T03:57:21.157Z,99.99
2018-12-27T03:58:21.115Z,99.99
2018-12-27T03:59:21.112Z,99.99
2018-12-27T04:00:21.095Z,99.99
2018-12-27T04:01:21.083Z,99.99
2018-12-27T04:02:21.071Z,99.99
2018-12-27T04:03:21.099Z,99.99
2018-12-27T04:04:21.051Z,99.99
2018-12-27T04:05:21.043Z,99.99
2018-12-27T04:06:21.030Z,99.99
2018-12-27T04:07:21.023Z,99.99
2018-12-27T04:08:21.014Z,99.99
2018-12-27T04:09:21.014Z,99.99
2018-12-27T04:10:20.986Z,99.99
2018-12-27T04:11:20.978Z,99.99
2018-12-27T04:12:20.970Z,99.99
2018-12-27T04:13:20.959Z,99.99
2018-12-27T04:14:20.954Z,99.99
2018-12-27T04:15:20.935Z,99.99
2018-12-27T04:16:20.926Z,99.99
2018-12-27T04:17:20.912Z,99.99
2018-12-27T04:18:20.905Z,99.99
2018-12-27T04:19:20.919Z,99.99
2018-12-27T04:20:20.884Z,99.99
2018-12-27T04:21:20.871Z,99.99
2018-12-27T04:22:20.867Z,99.99
2018-12-27T04:23:20.858Z,99.99
2018-12-27T04:24:20.838Z,99.99
2018-12-27T04:25:20.858Z,99.99
2018-12-27T04:26:20.818Z,99.99
2018-12-27T04:27:20.807Z,99.99
2018-12-27T04:28:20.797Z,99.99
2018-12-27T04:29:20.795Z,99.99
2018-12-27T04:30:20.775Z,99.99
2018-12-27T04:31:20.781Z,99.99
2018-12-27T04:32:20.756Z,99.99
2018-12-27T04:33:20.747Z,99.99
2018-12-27T04:34:20.743Z,99.99
2018-12-27T04:35:20.723Z,99.99
2018-12-27T04:36:20.730Z,99.99
2018-12-27T04:37:20.702Z,99.99
2018-12-27T04:38:20.702Z,99.99
2018-12-27T04:39:20.678Z,99.99
2018-12-27T04:40:20.671Z,99.99
2018-12-27T04:41:20.669Z,99.99
2018-12-27T04:42:20.660Z,99.99
2018-12-27T04:43:20.636Z,99.99
2018-12-27T04:44:20.636Z,99.99
2018-12-27T04:45:20.693Z,99.99
2018-12-27T04:46:20.605Z,99.99
2018-12-27T04:47:20.617Z,99.99
2018-12-27T04:48:20.613Z,99.99
2018-12-27T04:49:20.597Z,99.99
2018-12-27T04:50:20.558Z,99.99
2018-12-27T04:51:20.549Z,99.99
2018-12-27T04:52:20.560Z,99.99
2018-12-27T04:53:20.529Z,99.99
2018-12-27T04:54:20.517Z,99.99
2018-12-27T04:55:20.505Z,99.99
2018-12-27T04:56:20.494Z,99.99
2018-12-27T04:57:20.501Z,99.99
2018-12-27T04:58:20.478Z,99.99
2018-12-27T04:59:20.495Z,99.99
2018-12-27T05:00:20.454Z,99.99
2018-12-27T05:01:20.440Z,99.99
2018-12-27T05:02:20.434Z,99.99
2018-12-27T05:03:20.421Z,99.99
2018-12-27T05:04:20.406Z,99.99
2018-12-27T05:05:20.415Z,99.99
2018-12-27T05:06:20.394Z,99.99
2018-12-27T05:07:20.426Z,99.99
2018-12-27T05:08:20.379Z,99.99
2018-12-27T05:09:20.356Z,99.99
2018-12-27T05:10:20.349Z,99.99
2018-12-27T05:11:20.334Z,99.99
2018-12-27T05:12:20.323Z,99.99
2018-12-27T05:13:20.333Z,99.99
2018-12-27T05:14:20.303Z,99.99
2018-12-27T05:15:20.292Z,99.99
2018-12-27T05:16:20.282Z,99.99
2018-12-27T05:17:20.271Z,99.99
2018-12-27T05:18:20.261Z,99.99
2018-12-27T05:19:20.266Z,99.99
2018-12-27T05:20:20.238Z,99.99
2018-12-27T05:21:20.228Z,99.99
2018-12-27T05:22:20.216Z,99.99
2018-12-27T05:23:20.204Z,99.99
2018-12-27T05:24:20.208Z,99.99
2018-12-27T05:25:20.184Z,99.99
2018-12-27T05:26:20.172Z,99.99
2018-12-27T05:27:20.170Z,99.99
2018-12-27T05:28:20.168Z,99.99
2018-12-27T05:29:20.144Z,99.99
2018-12-27T05:30:20.130Z,99.99
2018-12-27T05:31:20.118Z,99.99
2018-12-27T05:32:20.107Z,99.99
2018-12-27T05:33:20.113Z,99.99
2018-12-27T05:34:26.214Z,99.99
2018-12-27T05:35:21.088Z,99.99
2018-12-27T05:36:20.066Z,99.99
2018-12-27T05:37:20.057Z,99.99
2018-12-27T05:38:20.055Z,99.99
2018-12-27T05:39:20.061Z,99.99
2018-12-27T05:40:20.023Z,99.99
2018-12-27T05:41:20.014Z,99.99
2018-12-27T05:42:20.000Z,99.99
2018-12-27T05:43:19.990Z,99.99
2018-12-27T05:44:19.981Z,99.99
2018-12-27T05:45:19.982Z,99.99
2018-12-27T05:46:19.989Z,99.99
2018-12-27T05:47:19.950Z,99.99
2018-12-27T05:48:19.935Z,99.99
2018-12-27T05:49:19.927Z,99.99
2018-12-27T05:50:19.914Z,99.99
2018-12-27T05:51:19.906Z,99.99
2018-12-27T05:52:19.919Z,99.99
2018-12-27T05:53:19.884Z,99.99
2018-12-27T05:54:19.873Z,99.99
2018-12-27T05:55:19.863Z,99.99
2018-12-27T05:56:19.854Z,99.99
2018-12-27T05:57:19.840Z,99.99
2018-12-27T05:58:19.845Z,99.99
2018-12-27T05:59:19.819Z,99.99
2018-12-27T06:00:19.807Z,99.99
2018-12-27T06:01:19.796Z,99.99
2018-12-27T06:02:19.789Z,99.99
2018-12-27T06:03:19.797Z,99.99
2018-12-27T06:04:19.769Z,99.99
2018-12-27T06:05:19.756Z,99.99
2018-12-27T06:06:19.744Z,99.99
2018-12-27T06:07:19.733Z,99.99
2018-12-27T06:08:19.741Z,99.99
2018-12-27T06:09:19.714Z,99.99
2018-12-27T06:10:19.703Z,99.99
2018-12-27T06:11:19.691Z,99.99
2018-12-27T06:12:19.682Z,99.99
2018-12-27T06:13:19.670Z,99.99
2018-12-27T06:14:19.702Z,99.99
2018-12-27T06:15:19.650Z,99.99
2018-12-27T06:16:19.636Z,99.99
2018-12-27T06:17:19.630Z,99.99
2018-12-27T06:18:19.616Z,99.99
2018-12-27T06:19:19.604Z,99.99
2018-12-27T06:20:19.611Z,99.99
2018-12-27T06:21:19.582Z,99.99
2018-12-27T06:22:19.589Z,99.99
2018-12-27T06:23:19.597Z,99.99
2018-12-27T06:24:19.554Z,99.99
2018-12-27T06:25:19.543Z,99.99
2018-12-27T06:26:19.532Z,99.99
2018-12-27T06:27:19.522Z,99.99
2018-12-27T06:28:19.510Z,99.99
2018-12-27T06:29:19.513Z,99.99
2018-12-27T06:30:19.488Z,99.99
2018-12-27T06:31:19.476Z,99.99
2018-12-27T06:32:19.465Z,99.99
2018-12-27T06:33:19.457Z,99.99
2018-12-27T06:34:19.466Z,99.99
2018-12-27T06:35:19.450Z,99.99
2018-12-27T06:36:19.423Z,99.99
2018-12-27T06:37:19.418Z,99.99
2018-12-27T06:38:19.403Z,99.99
2018-12-27T06:39:19.391Z,99.99
2018-12-27T06:40:19.410Z,99.99
2018-12-27T06:41:19.372Z,99.99
2018-12-27T06:42:19.360Z,99.99
2018-12-27T06:43:19.352Z,99.99
2018-12-27T06:44:19.336Z,99.99
2018-12-27T06:45:19.327Z,99.99
2018-12-27T06:46:19.460Z,99.99
2018-12-27T06:47:19.309Z,99.99
2018-12-27T06:48:19.294Z,99.99
2018-12-27T06:49:19.284Z,99.99
2018-12-27T06:50:19.275Z,99.99
2018-12-27T06:51:19.262Z,99.99
2018-12-27T06:52:19.265Z,99.99
2018-12-27T06:53:19.240Z,99.99
2018-12-27T06:54:19.230Z,99.99
2018-12-27T06:55:19.236Z,99.99
2018-12-27T06:56:19.219Z,99.99
2018-12-27T06:57:19.198Z,99.99
2018-12-27T06:58:19.188Z,99.99
2018-12-27T06:59:19.180Z,99.99
2018-12-27T07:00:19.182Z,99.99
2018-12-27T07:01:19.156Z,99.99
2018-12-27T07:02:19.163Z,99.99
2018-12-27T07:03:19.136Z,99.99
2018-12-27T07:04:19.135Z,99.99
2018-12-27T07:05:19.112Z,99.99
2018-12-27T07:06:19.135Z,99.99
2018-12-27T07:07:19.093Z,99.99
2018-12-27T07:08:19.080Z,99.99
2018-12-27T07:09:19.070Z,99.99
2018-12-27T07:10:19.062Z,99.99
2018-12-27T07:11:19.054Z,99.99
2018-12-27T07:12:19.051Z,99.99
2018-12-27T07:13:19.029Z,99.99
2018-12-27T07:14:19.018Z,99.99
2018-12-27T07:15:19.010Z,99.99
2018-12-27T07:16:18.995Z,99.99
2018-12-27T07:17:19.057Z,99.99
2018-12-27T07:18:18.976Z,99.99
2018-12-27T07:19:18.962Z,99.99
2018-12-27T07:20:18.952Z,99.99
2018-12-27T07:21:18.941Z,99.99
2018-12-27T07:22:18.947Z,99.99
2018-12-27T07:23:18.922Z,99.99
2018-12-27T07:24:18.909Z,99.99
2018-12-27T07:25:18.901Z,99.99
2018-12-27T07:26:18.890Z,99.99
2018-12-27T07:27:18.899Z,99.99
2018-12-27T07:28:18.866Z,99.99
2018-12-27T07:29:18.855Z,99.99
2018-12-27T07:30:18.845Z,99.99
2018-12-27T07:31:18.834Z,99.99
2018-12-27T07:32:18.823Z,99.99
2018-12-27T07:33:18.828Z,99.99
2018-12-27T07:34:18.802Z,99.99
2018-12-27T07:35:18.792Z,99.99
2018-12-27T07:36:18.781Z,99.99
2018-12-27T07:37:18.787Z,99.99
2018-12-27T07:38:18.775Z,99.99
2018-12-27T07:39:18.750Z,99.99
2018-12-27T07:40:18.740Z,99.99
2018-12-27T07:41:18.728Z,99.99
2018-12-27T07:42:18.730Z,99.99
2018-12-27T07:43:18.749Z,99.99
2018-12-27T07:44:18.698Z,99.99
2018-12-27T07:45:18.688Z,99.99
2018-12-27T07:46:18.676Z,99.99
2018-12-27T07:47:18.663Z,99.99
2018-12-27T07:48:18.654Z,99.99
2018-12-27T07:49:18.658Z,99.99
2018-12-27T07:50:18.630Z,99.99
2018-12-27T07:51:18.624Z,99.99
2018-12-27T07:52:18.612Z,99.99
2018-12-27T07:53:18.613Z,99.99
2018-12-27T07:54:18.588Z,99.99
2018-12-27T07:55:18.594Z,99.99
2018-12-27T07:56:18.569Z,99.99
2018-12-27T07:57:18.559Z,99.99
2018-12-27T07:58:18.547Z,99.99
2018-12-27T07:59:18.583Z,99.99
2018-12-27T08:00:18.525Z,99.99
2018-12-27T08:01:18.514Z,99.99
2018-12-27T08:02:18.507Z,99.99
2018-12-27T08:03:18.492Z,99.99
2018-12-27T08:04:18.479Z,99.99
2018-12-27T08:05:18.487Z,99.99
2018-12-27T08:06:18.460Z,99.99
2018-12-27T08:07:18.448Z,99.99
2018-12-27T08:08:18.438Z,99.99
2018-12-27T08:09:18.443Z,99.99
2018-12-27T08:10:18.416Z,99.99
2018-12-27T08:11:18.425Z,99.99
2018-12-27T08:12:18.409Z,99.99
2018-12-27T08:13:18.390Z,99.99
2018-12-27T08:14:18.373Z,99.99
2018-12-27T08:15:18.366Z,99.99
2018-12-27T08:16:18.375Z,99.99
2018-12-27T08:17:18.349Z,99.99
2018-12-27T08:18:18.330Z,99.99
2018-12-27T08:19:18.325Z,99.99
2018-12-27T08:20:18.309Z,99.99
2018-12-27T08:21:18.299Z,99.99
2018-12-27T08:22:18.302Z,99.99
2018-12-27T08:23:18.277Z,99.99
2018-12-27T08:24:18.267Z,99.99
2018-12-27T08:25:18.261Z,99.99
2018-12-27T08:26:18.245Z,99.99
2018-12-27T08:27:18.252Z,99.99
2018-12-27T08:28:18.224Z,99.99
2018-12-27T08:29:18.213Z,99.99
2018-12-27T08:30:18.205Z,99.99
2018-12-27T08:31:18.193Z,99.99
2018-12-27T08:32:18.225Z,99.99
2018-12-27T08:33:18.173Z,99.99
2018-12-27T08:34:18.162Z,99.99
2018-12-27T08:35:18.152Z,99.99
2018-12-27T08:36:18.139Z,99.99
2018-12-27T08:37:18.130Z,99.99
2018-12-27T08:38:18.148Z,99.99
2018-12-27T08:39:18.108Z,99.99
2018-12-27T08:40:18.092Z,99.99
2018-12-27T08:41:18.086Z,99.99
2018-12-27T08:42:18.074Z,99.99
2018-12-27T08:43:18.064Z,99.99
2018-12-27T08:44:18.070Z,99.99
2018-12-27T08:45:18.042Z,99.99
2018-12-27T08:46:18.034Z,99.99
2018-12-27T08:47:18.021Z,99.99
2018-12-27T08:48:18.024Z,99.99
2018-12-27T08:49:18.017Z,99.99
2018-12-27T08:50:17.987Z,99.99
2018-12-27T08:51:17.979Z,99.99
2018-12-27T08:52:17.967Z,99.99
2018-12-27T08:53:17.957Z,99.99
2018-12-27T08:54:17.965Z,99.99
2018-12-27T08:55:17.939Z,99.99
2018-12-27T08:56:17.924Z,99.99
2018-12-27T08:57:17.913Z,99.99
2018-12-27T08:58:17.903Z,99.99
2018-12-27T08:59:17.893Z,99.99
2018-12-27T09:00:17.899Z,99.99
2018-12-27T09:01:17.870Z,99.99
2018-12-27T09:02:17.862Z,99.99
2018-12-27T09:03:17.852Z,99.99
2018-12-27T09:04:17.855Z,99.99
2018-12-27T09:05:19.021Z,99.99
2018-12-27T09:06:17.820Z,99.99
2018-12-27T09:07:17.811Z,99.99
2018-12-27T09:08:17.801Z,99.99
2018-12-27T09:09:17.801Z,99.99
2018-12-27T09:10:17.780Z,99.99
2018-12-27T09:11:17.792Z,99.99
2018-12-27T09:12:17.753Z,99.99
2018-12-27T09:13:17.744Z,99.99
2018-12-27T09:14:17.731Z,99.99
2018-12-27T09:15:17.722Z,99.99
2018-12-27T09:16:17.710Z,99.99
2018-12-27T09:17:17.714Z,99.99
2018-12-27T09:18:17.691Z,99.99
2018-12-27T09:19:17.678Z,99.99
2018-12-27T09:20:17.674Z,99.99
2018-12-27T09:21:17.659Z,99.99
2018-12-27T09:22:17.686Z,99.99
2018-12-27T09:23:17.637Z,99.99
2018-12-27T09:24:17.626Z,99.99
2018-12-27T09:25:17.615Z,99.99
2018-12-27T09:26:17.602Z,99.99
2018-12-27T09:27:17.592Z,99.99
2018-12-27T09:28:17.598Z,99.99
2018-12-27T09:29:17.570Z,99.99
2018-12-27T09:30:17.560Z,99.99
2018-12-27T09:31:17.547Z,99.99
2018-12-27T09:32:17.552Z,99.85
2018-12-27T09:33:17.526Z,99.99
2018-12-27T09:34:17.518Z,99.99
2018-12-27T09:35:17.503Z,99.99
2018-12-27T09:36:17.498Z,99.99
2018-12-27T09:37:17.497Z,99.99
2018-12-27T09:38:17.471Z,99.99
2018-12-27T09:39:17.464Z,99.65
2018-12-27T09:40:17.487Z,99.99
2018-12-27T09:41:17.439Z,99.75
2018-12-27T09:42:17.431Z,99.96
2018-12-27T09:43:17.439Z,99.81
2018-12-27T09:44:17.410Z,99.99
2018-12-27T09:45:17.398Z,99.99
2018-12-27T09:46:17.402Z,99.71
2018-12-27T09:47:17.378Z,99.40
2018-12-27T09:48:17.368Z,99.40
2018-12-27T09:49:17.371Z,99.29
2018-12-27T09:50:17.343Z,99.40
2018-12-27T09:51:17.365Z,99.29
2018-12-27T09:52:17.323Z,99.50
2018-12-27T09:53:17.312Z,99.60
2018-12-27T09:54:17.302Z,99.40
2018-12-27T09:55:17.287Z,99.66
2018-12-27T09:56:17.283Z,98.93
2018-12-27T09:57:17.283Z,99.24
2018-12-27T09:58:17.258Z,99.14
2018-12-27T09:59:17.247Z,98.72
2018-12-27T10:00:17.246Z,99.14
2018-12-27T10:01:17.224Z,98.68
2018-12-27T10:02:17.229Z,98.47
2018-12-27T10:03:17.204Z,98.47
2018-12-27T10:04:17.193Z,98.43
2018-12-27T10:05:17.204Z,98.63
2018-12-27T10:06:17.172Z,98.59
2018-12-27T10:07:17.159Z,98.27
2018-12-27T10:08:17.149Z,97.86
2018-12-27T10:09:17.138Z,97.81
2018-12-27T10:10:17.130Z,98.44
2018-12-27T10:11:17.133Z,97.98
2018-12-27T10:12:17.120Z,97.67
2018-12-27T10:13:17.095Z,97.14
2018-12-27T10:14:17.087Z,97.14
2018-12-27T10:15:17.111Z,95.96
2018-12-27T10:16:17.065Z,94.82
2018-12-27T10:17:17.054Z,93.68
2018-12-27T10:18:17.042Z,92.53
2018-12-27T10:19:17.029Z,90.83
2018-12-27T10:20:17.019Z,89.11
2018-12-27T10:21:17.024Z,89.27
2018-12-27T10:22:16.996Z,89.06
2018-12-27T10:23:16.994Z,89.03
2018-12-27T10:24:16.991Z,88.92
2018-12-27T10:25:16.966Z,88.71
2018-12-27T10:26:16.968Z,88.05
2018-12-27T10:27:16.944Z,87.22
2018-12-27T10:28:16.935Z,87.32
2018-12-27T10:29:16.920Z,87.84
2018-12-27T10:30:16.928Z,87.32
2018-12-27T10:31:16.901Z,87.22
2018-12-27T10:32:16.891Z,86.91
2018-12-27T10:33:16.881Z,86.80
2018-12-27T10:34:16.868Z,87.49
2018-12-27T10:35:16.856Z,87.12
2018-12-27T10:36:16.858Z,87.80
2018-12-27T10:37:16.833Z,85.11
2018-12-27T10:38:16.825Z,85.27
2018-12-27T10:39:16.817Z,85.89
2018-12-27T10:40:16.810Z,85.17
2018-12-27T10:41:16.807Z,84.55
2018-12-27T10:42:16.795Z,85.75
2018-12-27T10:43:16.776Z,85.44
2018-12-27T10:44:16.776Z,85.65
2018-12-27T10:45:16.749Z,85.71
2018-12-27T10:46:16.735Z,84.78
2018-12-27T10:47:16.738Z,84.09
2018-12-27T10:48:16.717Z,83.26
2018-12-27T10:49:16.703Z,83.78
2018-12-27T10:50:16.698Z,84.72
2018-12-27T10:51:16.683Z,84.61
2018-12-27T10:52:16.688Z,84.20
2018-12-27T10:53:16.661Z,83.99
2018-12-27T10:54:16.650Z,84.20
2018-12-27T10:55:16.639Z,83.26
2018-12-27T10:56:16.626Z,84.41
2018-12-27T10:57:16.632Z,84.20
2018-12-27T10:58:16.605Z,84.41
2018-12-27T10:59:16.594Z,83.47
2018-12-27T11:00:16.678Z,83.89
2018-12-27T11:01:16.575Z,84.61
2018-12-27T11:02:16.564Z,84.51
2018-12-27T11:03:16.568Z,84.41
2018-12-27T11:04:16.539Z,83.85
2018-12-27T11:05:16.529Z,84.41
2018-12-27T11:06:16.523Z,83.99
2018-12-27T11:07:16.510Z,83.99
2018-12-27T11:08:16.510Z,84.37
2018-12-27T11:09:16.486Z,83.23
2018-12-27T11:10:16.477Z,81.99
2018-12-27T11:11:16.484Z,80.78
2018-12-27T11:12:16.455Z,82.03
2018-12-27T11:13:16.449Z,82.92
2018-12-27T11:14:16.448Z,83.37
2018-12-27T11:15:16.420Z,83.02
2018-12-27T11:16:16.414Z,83.12
2018-12-27T11:17:16.400Z,82.54
2018-12-27T11:18:16.391Z,82.29
2018-12-27T11:19:16.393Z,80.64
2018-12-27T11:20:16.368Z,81.47
2018-12-27T11:21:16.358Z,80.74
2018-12-27T11:22:16.355Z,81.51
2018-12-27T11:23:16.406Z,82.19
2018-12-27T11:24:16.322Z,83.23
2018-12-27T11:25:16.331Z,84.06
2018-12-27T11:26:16.302Z,84.27
2018-12-27T11:27:16.289Z,84.16
2018-12-27T11:28:16.282Z,84.78
2018-12-27T11:29:16.267Z,84.41
2018-12-27T11:30:16.255Z,82.54
2018-12-27T11:31:16.266Z,80.78
2018-12-27T11:32:16.257Z,81.30
2018-12-27T11:33:16.225Z,81.71
2018-12-27T11:34:16.212Z,81.30
2018-12-27T11:35:16.201Z,81.75
2018-12-27T11:36:17.455Z,82.34
2018-12-27T11:37:16.188Z,82.23
2018-12-27T11:38:16.184Z,82.68
2018-12-27T11:39:16.159Z,82.17
2018-12-27T11:40:16.152Z,82.89
2018-12-27T11:41:16.135Z,82.89
2018-12-27T11:42:16.140Z,82.17
2018-12-27T11:43:16.116Z,83.00
2018-12-27T11:44:16.199Z,84.03
2018-12-27T11:45:16.091Z,81.23
2018-12-27T11:46:16.081Z,80.61
2018-12-27T11:47:16.074Z,80.61
2018-12-27T11:48:16.062Z,79.68
2018-12-27T11:49:16.071Z,79.88
2018-12-27T11:50:16.042Z,82.06
2018-12-27T11:51:16.028Z,81.06
2018-12-27T11:52:16.017Z,82.06
2018-12-27T11:53:16.006Z,82.10
2018-12-27T11:54:16.012Z,81.99
2018-12-27T11:55:15.983Z,82.17
2018-12-27T11:56:15.978Z,82.06
2018-12-27T11:57:15.986Z,81.99
2018-12-27T11:58:15.953Z,82.20
2018-12-27T11:59:15.942Z,81.96
2018-12-27T12:00:15.935Z,82.31
2018-12-27T12:01:15.919Z,82.41
2018-12-27T12:02:15.911Z,82.93
2018-12-27T12:03:15.914Z,83.10
2018-12-27T12:04:15.890Z,83.41
2018-12-27T12:05:15.878Z,84.34
2018-12-27T12:06:15.882Z,84.44
2018-12-27T12:07:15.855Z,84.44
2018-12-27T12:08:15.868Z,84.34
2018-12-27T12:09:15.833Z,82.41
2018-12-27T12:10:15.826Z,82.37
2018-12-27T12:11:15.849Z,82.27
2018-12-27T12:12:15.804Z,81.89
2018-12-27T12:13:15.794Z,83.31
2018-12-27T12:14:15.798Z,84.28
2018-12-27T12:15:15.769Z,85.06
2018-12-27T12:16:15.778Z,84.90
2018-12-27T12:17:15.751Z,84.65
2018-12-27T12:18:15.751Z,85.17
2018-12-27T12:19:15.756Z,85.69
2018-12-27T12:20:15.718Z,84.65
2018-12-27T12:21:15.710Z,84.55
2018-12-27T12:22:15.696Z,84.55
2018-12-27T12:23:15.684Z,84.65
2018-12-27T12:24:15.680Z,84.86
2018-12-27T12:25:15.671Z,85.38
2018-12-27T12:26:15.717Z,84.96
2018-12-27T12:27:15.646Z,82.89
2018-12-27T12:28:15.644Z,83.51
2018-12-27T12:29:15.621Z,84.96
2018-12-27T12:30:15.628Z,85.27
2018-12-27T12:31:15.598Z,85.89
2018-12-27T12:32:15.590Z,85.48
2018-12-27T12:33:15.578Z,85.48
2018-12-27T12:34:15.568Z,85.06
2018-12-27T12:35:15.556Z,84.44
2018-12-27T12:36:15.560Z,84.28
2018-12-27T12:37:15.536Z,84.34
2018-12-27T12:38:15.525Z,84.44
2018-12-27T12:39:15.515Z,84.44
2018-12-27T12:40:15.539Z,85.17
2018-12-27T12:41:15.491Z,84.86
2018-12-27T12:42:15.963Z,85.27
2018-12-27T12:43:15.470Z,84.86
2018-12-27T12:44:15.460Z,85.06
2018-12-27T12:45:15.451Z,85.79
2018-12-27T12:46:15.463Z,85.73
2018-12-27T12:47:15.427Z,86.15
2018-12-27T12:48:15.417Z,86.15
2018-12-27T12:49:15.408Z,86.52
2018-12-27T12:50:15.400Z,85.58
2018-12-27T12:51:15.387Z,85.06
2018-12-27T12:52:15.390Z,85.00